sensor_id;sensor_type;location;lat;lon;timestamp;P1;durP1;ratioP1;P2;durP2;ratioP2
66163;SDS011;52962;51.088;3.096;2022-09-03T00:02:20;4.18;;;3.97;;
66163;SDS011;52962;51.088;3.096;2022-09-03T00:04:53;4.28;;;4.07;;
66163;SDS011;52962;51.088;3.096;2022-09-03T00:07:27;3.90;;;3.70;;
66163;SDS011;52962;51.088;3.096;2022-09-03T00:10:05;4.85;;;4.65;;
66163;SDS011;52962;51.088;3.096;2022-09-03T00:12:42;4.50;;;4.30;;
66163;SDS011;52962;51.088;3.096;2022-09-03T00:15:13;4.95;;;4.65;;
66163;SDS011;52962;51.088;3.096;2022-09-03T00:17:46;4.57;;;4.38;;
66163;SDS011;52962;51.088;3.096;2022-09-03T00:20:19;5.47;;;5.25;;
66163;SDS011;52962;51.088;3.096;2022-09-03T00:22:52;5.38;;;5.07;;
66163;SDS011;52962;51.088;3.096;2022-09-03T00:25:23;4.75;;;4.55;;
66163;SDS011;52962;51.088;3.096;2022-09-03T00:27:56;5.22;;;5.03;;
66163;SDS011;52962;51.088;3.096;2022-09-03T00:30:24;5.00;;;4.78;;
66163;SDS011;52962;51.088;3.096;2022-09-03T00:32:57;5.65;;;5.35;;
66163;SDS011;52962;51.088;3.096;2022-09-03T00:35:33;6.30;;;6.00;;
66163;SDS011;52962;51.088;3.096;2022-09-03T00:38:04;5.47;;;5.18;;
66163;SDS011;52962;51.088;3.096;2022-09-03T00:40:40;5.28;;;4.97;;
66163;SDS011;52962;51.088;3.096;2022-09-03T00:43:19;5.93;;;5.63;;
66163;SDS011;52962;51.088;3.096;2022-09-03T00:46:00;6.53;;;6.13;;
66163;SDS011;52962;51.088;3.096;2022-09-03T00:48:45;5.30;;;5.00;;
66163;SDS011;52962;51.088;3.096;2022-09-03T00:51:23;5.78;;;5.47;;
66163;SDS011;52962;51.088;3.096;2022-09-03T00:54:03;6.88;;;6.57;;
66163;SDS011;52962;51.088;3.096;2022-09-03T00:56:38;5.78;;;5.47;;
66163;SDS011;52962;51.088;3.096;2022-09-03T00:59:18;6.72;;;6.32;;
66163;SDS011;52962;51.088;3.096;2022-09-03T01:02:00;6.85;;;6.45;;
66163;SDS011;52962;51.088;3.096;2022-09-03T01:04:42;6.40;;;6.10;;
66163;SDS011;52962;51.088;3.096;2022-09-03T01:07:25;6.20;;;5.90;;
66163;SDS011;52962;51.088;3.096;2022-09-03T01:10:04;5.75;;;5.45;;
66163;SDS011;52962;51.088;3.096;2022-09-03T01:12:41;5.72;;;5.43;;
66163;SDS011;52962;51.088;3.096;2022-09-03T01:15:20;6.20;;;5.90;;
66163;SDS011;52962;51.088;3.096;2022-09-03T01:17:58;6.90;;;6.50;;
66163;SDS011;52962;51.088;3.096;2022-09-03T01:20:44;6.43;;;6.13;;
66163;SDS011;52962;51.088;3.096;2022-09-03T01:23:42;6.97;;;6.43;;
66163;SDS011;52962;51.088;3.096;2022-09-03T01:26:37;6.18;;;5.88;;
66163;SDS011;52962;51.088;3.096;2022-09-03T01:29:14;8.32;;;7.93;;
66163;SDS011;52962;51.088;3.096;2022-09-03T01:31:55;6.53;;;6.18;;
66163;SDS011;52962;51.088;3.096;2022-09-03T01:34:37;7.57;;;7.18;;
66163;SDS011;52962;51.088;3.096;2022-09-03T01:37:10;7.90;;;7.53;;
66163;SDS011;52962;51.088;3.096;2022-09-03T01:39:49;7.93;;;7.53;;
66163;SDS011;52962;51.088;3.096;2022-09-03T01:42:30;8.85;;;8.43;;
66163;SDS011;52962;51.088;3.096;2022-09-03T01:48:25;7.55;;;7.22;;
66163;SDS011;52962;51.088;3.096;2022-09-03T01:51:01;7.80;;;7.40;;
66163;SDS011;52962;51.088;3.096;2022-09-03T01:53:44;7.55;;;7.15;;
66163;SDS011;52962;51.088;3.096;2022-09-03T01:56:34;7.03;;;6.63;;
66163;SDS011;52962;51.088;3.096;2022-09-03T01:59:13;6.75;;;6.25;;
66163;SDS011;52962;51.088;3.096;2022-09-03T02:01:48;7.90;;;7.50;;
66163;SDS011;52962;51.088;3.096;2022-09-03T02:04:22;6.93;;;6.57;;
66163;SDS011;52962;51.088;3.096;2022-09-03T02:06:52;6.93;;;6.53;;
66163;SDS011;52962;51.088;3.096;2022-09-03T02:09:22;7.28;;;6.88;;
66163;SDS011;52962;51.088;3.096;2022-09-03T02:11:58;7.22;;;6.80;;
66163;SDS011;52962;51.088;3.096;2022-09-03T02:14:34;9.07;;;8.55;;
66163;SDS011;52962;51.088;3.096;2022-09-03T02:19:32;9.05;;;8.55;;
66163;SDS011;52962;51.088;3.096;2022-09-03T02:22:03;9.25;;;8.75;;
66163;SDS011;52962;51.088;3.096;2022-09-03T02:24:31;8.55;;;8.05;;
66163;SDS011;52962;51.088;3.096;2022-09-03T02:26:59;8.45;;;7.97;;
66163;SDS011;52962;51.088;3.096;2022-09-03T02:29:27;7.78;;;7.38;;
66163;SDS011;52962;51.088;3.096;2022-09-03T02:31:56;8.35;;;7.95;;
66163;SDS011;52962;51.088;3.096;2022-09-03T02:34:24;7.80;;;7.25;;
66163;SDS011;52962;51.088;3.096;2022-09-03T02:39:21;8.32;;;7.93;;
66163;SDS011;52962;51.088;3.096;2022-09-03T02:44:19;9.43;;;8.93;;
66163;SDS011;52962;51.088;3.096;2022-09-03T02:46:54;8.43;;;7.93;;
66163;SDS011;52962;51.088;3.096;2022-09-03T02:49:24;8.23;;;7.80;;
66163;SDS011;52962;51.088;3.096;2022-09-03T02:51:57;8.18;;;7.72;;
66163;SDS011;52962;51.088;3.096;2022-09-03T02:54:26;7.20;;;6.80;;
66163;SDS011;52962;51.088;3.096;2022-09-03T02:56:56;8.27;;;7.88;;
66163;SDS011;52962;51.088;3.096;2022-09-03T02:59:24;7.63;;;7.22;;
66163;SDS011;52962;51.088;3.096;2022-09-03T03:01:53;8.02;;;7.63;;
66163;SDS011;52962;51.088;3.096;2022-09-03T03:04:26;8.38;;;7.97;;
66163;SDS011;52962;51.088;3.096;2022-09-03T03:06:54;9.27;;;8.75;;
66163;SDS011;52962;51.088;3.096;2022-09-03T03:09:23;9.68;;;9.18;;
66163;SDS011;52962;51.088;3.096;2022-09-03T03:11:51;9.52;;;9.13;;
66163;SDS011;52962;51.088;3.096;2022-09-03T03:14:20;9.65;;;9.15;;
66163;SDS011;52962;51.088;3.096;2022-09-03T03:16:49;9.85;;;9.43;;
66163;SDS011;52962;51.088;3.096;2022-09-03T03:19:17;9.27;;;8.82;;
66163;SDS011;52962;51.088;3.096;2022-09-03T03:21:45;10.48;;;9.88;;
66163;SDS011;52962;51.088;3.096;2022-09-03T03:26:43;11.18;;;10.57;;
66163;SDS011;52962;51.088;3.096;2022-09-03T03:29:13;11.25;;;10.70;;
66163;SDS011;52962;51.088;3.096;2022-09-03T03:31:43;9.70;;;9.23;;
66163;SDS011;52962;51.088;3.096;2022-09-03T03:34:11;8.25;;;7.80;;
66163;SDS011;52962;51.088;3.096;2022-09-03T03:39:06;8.00;;;7.60;;
66163;SDS011;52962;51.088;3.096;2022-09-03T03:41:36;7.80;;;7.35;;
66163;SDS011;52962;51.088;3.096;2022-09-03T03:44:06;7.90;;;7.47;;
66163;SDS011;52962;51.088;3.096;2022-09-03T03:46:35;7.72;;;7.32;;
66163;SDS011;52962;51.088;3.096;2022-09-03T03:49:04;8.07;;;7.57;;
66163;SDS011;52962;51.088;3.096;2022-09-03T03:51:33;8.40;;;7.90;;
66163;SDS011;52962;51.088;3.096;2022-09-03T03:54:02;8.48;;;7.97;;
66163;SDS011;52962;51.088;3.096;2022-09-03T03:56:31;8.25;;;7.75;;
66163;SDS011;52962;51.088;3.096;2022-09-03T03:59:00;8.48;;;7.97;;
66163;SDS011;52962;51.088;3.096;2022-09-03T04:01:30;8.20;;;7.70;;
66163;SDS011;52962;51.088;3.096;2022-09-03T04:03:58;7.95;;;7.55;;
66163;SDS011;52962;51.088;3.096;2022-09-03T04:06:26;13.32;;;9.43;;
66163;SDS011;52962;51.088;3.096;2022-09-03T04:08:55;7.43;;;7.03;;
66163;SDS011;52962;51.088;3.096;2022-09-03T04:11:23;7.38;;;6.97;;
66163;SDS011;52962;51.088;3.096;2022-09-03T04:13:52;7.90;;;7.50;;
66163;SDS011;52962;51.088;3.096;2022-09-03T04:16:21;8.10;;;7.60;;
66163;SDS011;52962;51.088;3.096;2022-09-03T04:18:52;9.13;;;8.63;;
66163;SDS011;52962;51.088;3.096;2022-09-03T04:21:21;7.35;;;6.90;;
66163;SDS011;52962;51.088;3.096;2022-09-03T04:23:53;7.82;;;7.32;;
66163;SDS011;52962;51.088;3.096;2022-09-03T04:26:22;7.80;;;7.30;;
66163;SDS011;52962;51.088;3.096;2022-09-03T04:28:52;8.52;;;7.93;;
66163;SDS011;52962;51.088;3.096;2022-09-03T04:31:20;7.82;;;7.32;;
66163;SDS011;52962;51.088;3.096;2022-09-03T04:33:48;8.30;;;7.80;;
66163;SDS011;52962;51.088;3.096;2022-09-03T04:36:19;7.47;;;7.05;;
66163;SDS011;52962;51.088;3.096;2022-09-03T04:38:49;8.45;;;7.95;;
66163;SDS011;52962;51.088;3.096;2022-09-03T04:41:21;8.30;;;7.80;;
66163;SDS011;52962;51.088;3.096;2022-09-03T04:43:50;8.30;;;7.80;;
66163;SDS011;52962;51.088;3.096;2022-09-03T04:46:19;8.25;;;7.75;;
66163;SDS011;52962;51.088;3.096;2022-09-03T04:48:49;8.00;;;7.50;;
66163;SDS011;52962;51.088;3.096;2022-09-03T04:51:20;8.60;;;8.00;;
66163;SDS011;52962;51.088;3.096;2022-09-03T04:53:53;8.73;;;8.23;;
66163;SDS011;52962;51.088;3.096;2022-09-03T04:56:23;9.13;;;8.57;;
66163;SDS011;52962;51.088;3.096;2022-09-03T04:58:54;9.35;;;8.75;;
66163;SDS011;52962;51.088;3.096;2022-09-03T05:01:24;10.13;;;9.63;;
66163;SDS011;52962;51.088;3.096;2022-09-03T05:03:54;10.65;;;10.07;;
66163;SDS011;52962;51.088;3.096;2022-09-03T05:06:24;8.05;;;7.65;;
66163;SDS011;52962;51.088;3.096;2022-09-03T05:08:53;8.60;;;8.10;;
66163;SDS011;52962;51.088;3.096;2022-09-03T05:11:22;8.70;;;8.20;;
66163;SDS011;52962;51.088;3.096;2022-09-03T05:13:52;8.38;;;7.78;;
66163;SDS011;52962;51.088;3.096;2022-09-03T05:16:21;8.27;;;7.78;;
66163;SDS011;52962;51.088;3.096;2022-09-03T05:18:51;9.10;;;8.60;;
66163;SDS011;52962;51.088;3.096;2022-09-03T05:21:19;9.15;;;8.57;;
66163;SDS011;52962;51.088;3.096;2022-09-03T05:23:50;9.30;;;8.68;;
66163;SDS011;52962;51.088;3.096;2022-09-03T05:26:19;10.00;;;9.40;;
66163;SDS011;52962;51.088;3.096;2022-09-03T05:28:51;10.30;;;9.60;;
66163;SDS011;52962;51.088;3.096;2022-09-03T05:31:20;8.93;;;8.43;;
66163;SDS011;52962;51.088;3.096;2022-09-03T05:33:52;10.77;;;10.00;;
66163;SDS011;52962;51.088;3.096;2022-09-03T05:36:23;11.63;;;10.93;;
66163;SDS011;52962;51.088;3.096;2022-09-03T05:38:54;10.18;;;9.50;;
66163;SDS011;52962;51.088;3.096;2022-09-03T05:41:24;12.45;;;11.75;;
66163;SDS011;52962;51.088;3.096;2022-09-03T05:43:53;9.82;;;9.23;;
66163;SDS011;52962;51.088;3.096;2022-09-03T05:46:25;10.60;;;9.90;;
66163;SDS011;52962;51.088;3.096;2022-09-03T05:48:57;10.35;;;9.65;;
66163;SDS011;52962;51.088;3.096;2022-09-03T05:51:26;10.45;;;9.82;;
66163;SDS011;52962;51.088;3.096;2022-09-03T05:53:56;10.18;;;9.57;;
66163;SDS011;52962;51.088;3.096;2022-09-03T05:56:25;12.18;;;11.40;;
66163;SDS011;52962;51.088;3.096;2022-09-03T05:58:55;10.80;;;10.10;;
66163;SDS011;52962;51.088;3.096;2022-09-03T06:01:27;9.52;;;8.93;;
66163;SDS011;52962;51.088;3.096;2022-09-03T06:03:56;9.48;;;8.88;;
66163;SDS011;52962;51.088;3.096;2022-09-03T06:06:26;10.50;;;10.00;;
66163;SDS011;52962;51.088;3.096;2022-09-03T06:08:57;11.10;;;10.48;;
66163;SDS011;52962;51.088;3.096;2022-09-03T06:11:27;9.85;;;9.35;;
66163;SDS011;52962;51.088;3.096;2022-09-03T06:13:58;11.13;;;10.50;;
66163;SDS011;52962;51.088;3.096;2022-09-03T06:16:28;9.63;;;9.10;;
66163;SDS011;52962;51.088;3.096;2022-09-03T06:18:57;10.48;;;9.88;;
66163;SDS011;52962;51.088;3.096;2022-09-03T06:21:26;10.00;;;9.30;;
66163;SDS011;52962;51.088;3.096;2022-09-03T06:26:27;10.18;;;9.38;;
66163;SDS011;52962;51.088;3.096;2022-09-03T06:28:55;10.45;;;9.85;;
66163;SDS011;52962;51.088;3.096;2022-09-03T06:31:24;9.65;;;8.95;;
66163;SDS011;52962;51.088;3.096;2022-09-03T06:33:52;12.55;;;11.82;;
66163;SDS011;52962;51.088;3.096;2022-09-03T06:36:26;11.05;;;10.35;;
66163;SDS011;52962;51.088;3.096;2022-09-03T06:38:54;11.23;;;10.52;;
66163;SDS011;52962;51.088;3.096;2022-09-03T06:41:24;11.50;;;10.70;;
66163;SDS011;52962;51.088;3.096;2022-09-03T06:43:56;11.95;;;11.15;;
66163;SDS011;52962;51.088;3.096;2022-09-03T06:46:29;12.50;;;11.50;;
66163;SDS011;52962;51.088;3.096;2022-09-03T06:48:58;11.93;;;11.23;;
66163;SDS011;52962;51.088;3.096;2022-09-03T06:51:27;12.50;;;11.50;;
66163;SDS011;52962;51.088;3.096;2022-09-03T06:53:58;12.43;;;11.35;;
66163;SDS011;52962;51.088;3.096;2022-09-03T06:56:28;11.98;;;11.38;;
66163;SDS011;52962;51.088;3.096;2022-09-03T06:59:05;11.60;;;10.73;;
66163;SDS011;52962;51.088;3.096;2022-09-03T07:01:38;11.23;;;10.60;;
66163;SDS011;52962;51.088;3.096;2022-09-03T07:04:10;10.82;;;10.20;;
66163;SDS011;52962;51.088;3.096;2022-09-03T07:06:41;11.07;;;10.45;;
66163;SDS011;52962;51.088;3.096;2022-09-03T07:09:10;10.15;;;9.52;;
66163;SDS011;52962;51.088;3.096;2022-09-03T07:11:40;10.18;;;9.43;;
66163;SDS011;52962;51.088;3.096;2022-09-03T07:16:41;9.98;;;9.38;;
66163;SDS011;52962;51.088;3.096;2022-09-03T07:19:09;10.38;;;9.70;;
66163;SDS011;52962;51.088;3.096;2022-09-03T07:21:39;9.32;;;8.73;;
66163;SDS011;52962;51.088;3.096;2022-09-03T07:24:14;9.40;;;8.77;;
66163;SDS011;52962;51.088;3.096;2022-09-03T07:26:44;10.70;;;9.85;;
66163;SDS011;52962;51.088;3.096;2022-09-03T07:29:14;9.43;;;8.93;;
66163;SDS011;52962;51.088;3.096;2022-09-03T07:31:46;9.52;;;9.00;;
66163;SDS011;52962;51.088;3.096;2022-09-03T07:34:17;9.63;;;9.02;;
66163;SDS011;52962;51.088;3.096;2022-09-03T07:36:47;9.13;;;8.63;;
66163;SDS011;52962;51.088;3.096;2022-09-03T07:39:16;9.25;;;8.73;;
66163;SDS011;52962;51.088;3.096;2022-09-03T07:41:46;9.35;;;8.88;;
66163;SDS011;52962;51.088;3.096;2022-09-03T07:44:16;10.73;;;10.13;;
66163;SDS011;52962;51.088;3.096;2022-09-03T07:46:45;10.45;;;9.85;;
66163;SDS011;52962;51.088;3.096;2022-09-03T07:49:16;11.35;;;10.75;;
66163;SDS011;52962;51.088;3.096;2022-09-03T07:51:45;8.88;;;8.43;;
66163;SDS011;52962;51.088;3.096;2022-09-03T07:54:16;8.57;;;8.10;;
66163;SDS011;52962;51.088;3.096;2022-09-03T07:56:46;9.35;;;8.90;;
66163;SDS011;52962;51.088;3.096;2022-09-03T07:59:14;8.98;;;8.52;;
66163;SDS011;52962;51.088;3.096;2022-09-03T08:04:10;8.38;;;7.88;;
66163;SDS011;52962;51.088;3.096;2022-09-03T08:06:38;8.73;;;8.18;;
66163;SDS011;52962;51.088;3.096;2022-09-03T08:09:09;9.23;;;8.68;;
66163;SDS011;52962;51.088;3.096;2022-09-03T08:11:39;9.07;;;8.57;;
66163;SDS011;52962;51.088;3.096;2022-09-03T08:14:11;8.50;;;8.00;;
66163;SDS011;52962;51.088;3.096;2022-09-03T08:16:40;8.25;;;7.85;;
66163;SDS011;52962;51.088;3.096;2022-09-03T08:19:09;8.20;;;7.80;;
66163;SDS011;52962;51.088;3.096;2022-09-03T08:21:39;8.02;;;7.63;;
66163;SDS011;52962;51.088;3.096;2022-09-03T08:24:08;8.80;;;8.40;;
66163;SDS011;52962;51.088;3.096;2022-09-03T08:26:37;8.10;;;7.70;;
66163;SDS011;52962;51.088;3.096;2022-09-03T08:29:07;9.23;;;8.73;;
66163;SDS011;52962;51.088;3.096;2022-09-03T08:31:37;8.02;;;7.63;;
66163;SDS011;52962;51.088;3.096;2022-09-03T08:34:05;8.20;;;7.70;;
66163;SDS011;52962;51.088;3.096;2022-09-03T08:36:36;8.88;;;8.43;;
66163;SDS011;52962;51.088;3.096;2022-09-03T08:39:07;9.32;;;8.90;;
66163;SDS011;52962;51.088;3.096;2022-09-03T08:41:46;9.60;;;9.00;;
66163;SDS011;52962;51.088;3.096;2022-09-03T08:44:27;9.35;;;8.88;;
66163;SDS011;52962;51.088;3.096;2022-09-03T08:46:59;8.68;;;8.27;;
66163;SDS011;52962;51.088;3.096;2022-09-03T08:49:32;9.73;;;9.15;;
66163;SDS011;52962;51.088;3.096;2022-09-03T08:52:13;10.35;;;9.85;;
66163;SDS011;52962;51.088;3.096;2022-09-03T08:54:48;9.70;;;9.20;;
66163;SDS011;52962;51.088;3.096;2022-09-03T08:57:19;11.48;;;10.88;;
66163;SDS011;52962;51.088;3.096;2022-09-03T08:59:49;10.02;;;9.52;;
66163;SDS011;52962;51.088;3.096;2022-09-03T09:02:28;10.15;;;9.65;;
66163;SDS011;52962;51.088;3.096;2022-09-03T09:05:04;10.00;;;9.50;;
66163;SDS011;52962;51.088;3.096;2022-09-03T09:07:41;45.15;;;42.95;;
66163;SDS011;52962;51.088;3.096;2022-09-03T09:10:15;11.13;;;10.63;;
66163;SDS011;52962;51.088;3.096;2022-09-03T09:12:51;8.05;;;7.65;;
66163;SDS011;52962;51.088;3.096;2022-09-03T09:15:33;7.88;;;7.47;;
66163;SDS011;52962;51.088;3.096;2022-09-03T09:18:12;7.63;;;7.22;;
66163;SDS011;52962;51.088;3.096;2022-09-03T09:20:49;27.83;;;26.58;;
66163;SDS011;52962;51.088;3.096;2022-09-03T09:23:23;10.65;;;10.15;;
66163;SDS011;52962;51.088;3.096;2022-09-03T09:25:54;20.35;;;19.45;;
66163;SDS011;52962;51.088;3.096;2022-09-03T09:28:28;7.57;;;7.18;;
66163;SDS011;52962;51.088;3.096;2022-09-03T09:30:59;7.78;;;7.38;;
66163;SDS011;52962;51.088;3.096;2022-09-03T09:33:31;6.93;;;6.53;;
66163;SDS011;52962;51.088;3.096;2022-09-03T09:36:01;7.85;;;7.35;;
66163;SDS011;52962;51.088;3.096;2022-09-03T09:38:32;8.57;;;8.18;;
66163;SDS011;52962;51.088;3.096;2022-09-03T09:41:08;7.13;;;6.55;;
66163;SDS011;52962;51.088;3.096;2022-09-03T09:43:37;6.88;;;6.57;;
66163;SDS011;52962;51.088;3.096;2022-09-03T09:46:06;9.38;;;7.85;;
66163;SDS011;52962;51.088;3.096;2022-09-03T09:48:43;8.95;;;8.35;;
66163;SDS011;52962;51.088;3.096;2022-09-03T09:51:17;8.40;;;7.97;;
66163;SDS011;52962;51.088;3.096;2022-09-03T09:53:48;8.68;;;7.95;;
66163;SDS011;52962;51.088;3.096;2022-09-03T09:56:27;9.30;;;8.80;;
66163;SDS011;52962;51.088;3.096;2022-09-03T09:59:03;9.48;;;8.90;;
66163;SDS011;52962;51.088;3.096;2022-09-03T10:01:32;9.18;;;8.73;;
66163;SDS011;52962;51.088;3.096;2022-09-03T10:04:08;13.90;;;13.25;;
66163;SDS011;52962;51.088;3.096;2022-09-03T10:06:38;17.27;;;16.50;;
66163;SDS011;52962;51.088;3.096;2022-09-03T10:09:23;16.73;;;15.93;;
66163;SDS011;52962;51.088;3.096;2022-09-03T10:12:02;13.73;;;13.10;;
66163;SDS011;52962;51.088;3.096;2022-09-03T10:14:41;11.18;;;10.63;;
66163;SDS011;52962;51.088;3.096;2022-09-03T10:17:15;11.65;;;10.98;;
66163;SDS011;52962;51.088;3.096;2022-09-03T10:20:04;10.57;;;10.07;;
66163;SDS011;52962;51.088;3.096;2022-09-03T10:22:56;9.95;;;9.50;;
66163;SDS011;52962;51.088;3.096;2022-09-03T10:25:29;9.95;;;9.45;;
66163;SDS011;52962;51.088;3.096;2022-09-03T10:28:05;8.43;;;8.02;;
66163;SDS011;52962;51.088;3.096;2022-09-03T10:30:51;7.97;;;7.57;;
66163;SDS011;52962;51.088;3.096;2022-09-03T10:33:29;9.02;;;8.52;;
66163;SDS011;52962;51.088;3.096;2022-09-03T10:36:06;8.30;;;7.80;;
66163;SDS011;52962;51.088;3.096;2022-09-03T10:38:38;9.60;;;9.10;;
66163;SDS011;52962;51.088;3.096;2022-09-03T10:41:13;11.68;;;11.05;;
66163;SDS011;52962;51.088;3.096;2022-09-03T10:44:03;17.65;;;16.80;;
66163;SDS011;52962;51.088;3.096;2022-09-03T10:47:04;15.40;;;14.57;;
66163;SDS011;52962;51.088;3.096;2022-09-03T10:49:47;13.88;;;13.18;;
66163;SDS011;52962;51.088;3.096;2022-09-03T10:52:25;9.90;;;9.38;;
66163;SDS011;52962;51.088;3.096;2022-09-03T10:55:02;10.55;;;10.05;;
66163;SDS011;52962;51.088;3.096;2022-09-03T10:57:45;10.43;;;9.93;;
66163;SDS011;52962;51.088;3.096;2022-09-03T11:00:17;10.73;;;10.02;;
66163;SDS011;52962;51.088;3.096;2022-09-03T11:06:00;8.25;;;7.68;;
66163;SDS011;52962;51.088;3.096;2022-09-03T11:08:35;8.20;;;7.80;;
66163;SDS011;52962;51.088;3.096;2022-09-03T11:11:11;7.47;;;6.97;;
66163;SDS011;52962;51.088;3.096;2022-09-03T11:13:46;7.93;;;7.57;;
66163;SDS011;52962;51.088;3.096;2022-09-03T11:16:19;7.82;;;7.43;;
66163;SDS011;52962;51.088;3.096;2022-09-03T11:18:53;9.13;;;8.63;;
66163;SDS011;52962;51.088;3.096;2022-09-03T11:21:24;10.05;;;9.55;;
66163;SDS011;52962;51.088;3.096;2022-09-03T11:24:00;9.73;;;9.23;;
66163;SDS011;52962;51.088;3.096;2022-09-03T11:26:35;9.00;;;8.50;;
66163;SDS011;52962;51.088;3.096;2022-09-03T11:29:05;9.48;;;8.93;;
66163;SDS011;52962;51.088;3.096;2022-09-03T11:31:44;10.93;;;10.07;;
66163;SDS011;52962;51.088;3.096;2022-09-03T11:34:25;9.90;;;9.35;;
66163;SDS011;52962;51.088;3.096;2022-09-03T11:37:05;9.77;;;9.27;;
66163;SDS011;52962;51.088;3.096;2022-09-03T11:39:44;11.50;;;10.85;;
66163;SDS011;52962;51.088;3.096;2022-09-03T11:42:28;9.63;;;9.13;;
66163;SDS011;52962;51.088;3.096;2022-09-03T11:45:10;9.25;;;8.75;;
66163;SDS011;52962;51.088;3.096;2022-09-03T11:47:41;10.10;;;9.52;;
66163;SDS011;52962;51.088;3.096;2022-09-03T11:50:17;9.30;;;8.82;;
66163;SDS011;52962;51.088;3.096;2022-09-03T11:52:48;8.98;;;8.48;;
66163;SDS011;52962;51.088;3.096;2022-09-03T11:55:25;9.68;;;9.18;;
66163;SDS011;52962;51.088;3.096;2022-09-03T11:58:10;10.85;;;10.25;;
66163;SDS011;52962;51.088;3.096;2022-09-03T12:00:43;9.90;;;9.40;;
66163;SDS011;52962;51.088;3.096;2022-09-03T12:03:12;10.73;;;10.13;;
66163;SDS011;52962;51.088;3.096;2022-09-03T12:05:46;11.15;;;10.52;;
66163;SDS011;52962;51.088;3.096;2022-09-03T12:08:38;15.27;;;14.48;;
66163;SDS011;52962;51.088;3.096;2022-09-03T12:11:28;13.30;;;12.63;;
66163;SDS011;52962;51.088;3.096;2022-09-03T12:14:09;13.00;;;12.27;;
66163;SDS011;52962;51.088;3.096;2022-09-03T12:17:07;15.25;;;14.50;;
66163;SDS011;52962;51.088;3.096;2022-09-03T12:19:44;14.45;;;13.73;;
66163;SDS011;52962;51.088;3.096;2022-09-03T12:22:20;15.63;;;14.82;;
66163;SDS011;52962;51.088;3.096;2022-09-03T12:24:49;16.67;;;15.90;;
66163;SDS011;52962;51.088;3.096;2022-09-03T12:27:20;15.77;;;14.98;;
66163;SDS011;52962;51.088;3.096;2022-09-03T12:29:54;17.00;;;16.20;;
66163;SDS011;52962;51.088;3.096;2022-09-03T12:32:25;17.38;;;16.58;;
66163;SDS011;52962;51.088;3.096;2022-09-03T12:34:57;15.15;;;14.43;;
66163;SDS011;52962;51.088;3.096;2022-09-03T12:37:36;19.80;;;18.92;;
66163;SDS011;52962;51.088;3.096;2022-09-03T12:40:25;18.42;;;17.55;;
66163;SDS011;52962;51.088;3.096;2022-09-03T12:43:10;17.80;;;17.00;;
66163;SDS011;52962;51.088;3.096;2022-09-03T12:45:59;16.80;;;15.90;;
66163;SDS011;52962;51.088;3.096;2022-09-03T12:48:36;14.65;;;14.02;;
66163;SDS011;52962;51.088;3.096;2022-09-03T12:51:05;14.20;;;13.57;;
66163;SDS011;52962;51.088;3.096;2022-09-03T12:53:53;14.43;;;13.82;;
66163;SDS011;52962;51.088;3.096;2022-09-03T12:56:21;14.52;;;13.90;;
66163;SDS011;52962;51.088;3.096;2022-09-03T12:58:53;13.77;;;13.18;;
66163;SDS011;52962;51.088;3.096;2022-09-03T13:01:26;17.83;;;17.02;;
66163;SDS011;52962;51.088;3.096;2022-09-03T13:03:58;17.52;;;16.80;;
66163;SDS011;52962;51.088;3.096;2022-09-03T13:06:40;17.20;;;16.48;;
66163;SDS011;52962;51.088;3.096;2022-09-03T13:09:17;14.63;;;14.00;;
66163;SDS011;52962;51.088;3.096;2022-09-03T13:11:48;16.67;;;15.85;;
66163;SDS011;52962;51.088;3.096;2022-09-03T13:14:19;14.65;;;14.05;;
66163;SDS011;52962;51.088;3.096;2022-09-03T13:16:53;14.43;;;13.63;;
66163;SDS011;52962;51.088;3.096;2022-09-03T13:22:38;11.02;;;10.63;;
66163;SDS011;52962;51.088;3.096;2022-09-03T13:25:15;11.55;;;10.95;;
66163;SDS011;52962;51.088;3.096;2022-09-03T13:27:53;9.93;;;9.52;;
66163;SDS011;52962;51.088;3.096;2022-09-03T13:30:30;8.65;;;8.32;;
66163;SDS011;52962;51.088;3.096;2022-09-03T13:33:06;11.10;;;10.60;;
66163;SDS011;52962;51.088;3.096;2022-09-03T13:35:43;11.65;;;11.18;;
66163;SDS011;52962;51.088;3.096;2022-09-03T13:38:18;12.15;;;11.65;;
66163;SDS011;52962;51.088;3.096;2022-09-03T13:40:53;11.35;;;10.93;;
66163;SDS011;52962;51.088;3.096;2022-09-03T13:43:27;14.65;;;14.05;;
66163;SDS011;52962;51.088;3.096;2022-09-03T13:46:04;12.80;;;12.25;;
66163;SDS011;52962;51.088;3.096;2022-09-03T13:48:35;14.93;;;14.35;;
66163;SDS011;52962;51.088;3.096;2022-09-03T13:51:24;26.23;;;25.05;;
66163;SDS011;52962;51.088;3.096;2022-09-03T13:53:58;25.42;;;24.35;;
66163;SDS011;52962;51.088;3.096;2022-09-03T13:56:36;26.50;;;25.40;;
66163;SDS011;52962;51.088;3.096;2022-09-03T13:59:16;28.83;;;27.55;;
66163;SDS011;52962;51.088;3.096;2022-09-03T14:01:56;24.00;;;22.95;;
66163;SDS011;52962;51.088;3.096;2022-09-03T14:04:33;26.40;;;25.30;;
66163;SDS011;52962;51.088;3.096;2022-09-03T14:07:16;23.35;;;22.40;;
66163;SDS011;52962;51.088;3.096;2022-09-03T14:09:53;23.02;;;22.02;;
66163;SDS011;52962;51.088;3.096;2022-09-03T14:12:30;18.15;;;17.23;;
66163;SDS011;52962;51.088;3.096;2022-09-03T14:15:09;21.85;;;20.95;;
66163;SDS011;52962;51.088;3.096;2022-09-03T14:17:47;26.52;;;25.33;;
66163;SDS011;52962;51.088;3.096;2022-09-03T14:20:24;28.73;;;27.40;;
66163;SDS011;52962;51.088;3.096;2022-09-03T14:22:55;23.55;;;22.55;;
66163;SDS011;52962;51.088;3.096;2022-09-03T14:25:29;21.45;;;20.55;;
66163;SDS011;52962;51.088;3.096;2022-09-03T14:28:11;26.92;;;25.17;;
66163;SDS011;52962;51.088;3.096;2022-09-03T14:30:42;22.52;;;21.52;;
66163;SDS011;52962;51.088;3.096;2022-09-03T14:33:24;22.00;;;21.05;;
66163;SDS011;52962;51.088;3.096;2022-09-03T14:36:01;23.08;;;22.13;;
66163;SDS011;52962;51.088;3.096;2022-09-03T14:41:41;18.05;;;17.25;;
66163;SDS011;52962;51.088;3.096;2022-09-03T14:44:26;18.77;;;18.00;;
66163;SDS011;52962;51.088;3.096;2022-09-03T14:47:12;21.17;;;20.27;;
66163;SDS011;52962;51.088;3.096;2022-09-03T14:49:55;24.15;;;23.02;;
66163;SDS011;52962;51.088;3.096;2022-09-03T14:52:39;24.17;;;23.17;;
66163;SDS011;52962;51.088;3.096;2022-09-03T14:55:52;22.92;;;21.92;;
66163;SDS011;52962;51.088;3.096;2022-09-03T14:58:38;21.05;;;20.15;;
66163;SDS011;52962;51.088;3.096;2022-09-03T15:01:16;14.30;;;13.70;;
66163;SDS011;52962;51.088;3.096;2022-09-03T15:03:53;13.80;;;13.20;;
66163;SDS011;52962;51.088;3.096;2022-09-03T15:06:49;13.05;;;12.48;;
66163;SDS011;52962;51.088;3.096;2022-09-03T15:09:32;11.77;;;11.27;;
66163;SDS011;52962;51.088;3.096;2022-09-03T15:12:07;12.35;;;11.85;;
66163;SDS011;52962;51.088;3.096;2022-09-03T15:14:45;13.90;;;13.27;;
66163;SDS011;52962;51.088;3.096;2022-09-03T15:17:23;13.65;;;13.07;;
66163;SDS011;52962;51.088;3.096;2022-09-03T15:20:10;10.70;;;10.20;;
66163;SDS011;52962;51.088;3.096;2022-09-03T15:23:01;13.32;;;12.73;;
66163;SDS011;52962;51.088;3.096;2022-09-03T15:25:42;16.73;;;16.00;;
66163;SDS011;52962;51.088;3.096;2022-09-03T15:28:22;17.67;;;16.63;;
66163;SDS011;52962;51.088;3.096;2022-09-03T15:31:00;25.48;;;24.38;;
66163;SDS011;52962;51.088;3.096;2022-09-03T15:33:38;40.03;;;38.20;;
66163;SDS011;52962;51.088;3.096;2022-09-03T15:36:16;26.77;;;25.58;;
66163;SDS011;52962;51.088;3.096;2022-09-03T15:38:51;29.60;;;28.27;;
66163;SDS011;52962;51.088;3.096;2022-09-03T15:41:30;26.50;;;25.33;;
66163;SDS011;52962;51.088;3.096;2022-09-03T15:44:07;21.95;;;21.00;;
66163;SDS011;52962;51.088;3.096;2022-09-03T15:46:48;25.02;;;23.92;;
66163;SDS011;52962;51.088;3.096;2022-09-03T15:49:36;25.63;;;24.50;;
66163;SDS011;52962;51.088;3.096;2022-09-03T15:52:24;24.15;;;23.08;;